Time;durP1;ratioP1;P1;durP2;ratioP2;P2;SDS_P1;SDS_P2;PMS_P1;PMS_P2;Temp;Humidity;BMP_temperature;BMP_pressure;BME280_temperature;BME280_humidity;BME280_pressure;Samples;Min_cycle;Max_cycle;Signal;HPM_P1;HPM_P2
2021/09/22 00:00:22;;;;;;;1.45;1.30;;;;;;;7.34;92.23;99658.28;1673412;85;21072;-73
2021/09/22 00:02:50;;;;;;;1.55;1.10;;;;;;;7.32;92.41;99663.58;1673650;85;20961;-71
2021/09/22 00:05:17;;;;;;;1.15;1.07;;;;;;;7.26;92.83;99656.47;1681915;85;21558;-74
2021/09/22 00:07:46;;;;;;;1.30;1.20;;;;;;;7.23;93.12;99650.24;1687754;85;20996;-73
2021/09/22 00:10:16;;;;;;;1.00;1.00;;;;;;;7.23;93.49;99652.41;1689180;84;21123;-74
2021/09/22 00:12:43;;;;;;;1.30;1.10;;;;;;;7.24;93.79;99651.88;1689127;84;21060;-73
2021/09/22 00:15:12;;;;;;;0.90;0.90;;;;;;;7.24;94.14;99654.56;1682672;84;21024;-72
2021/09/22 00:17:39;;;;;;;1.02;1.02;;;;;;;7.22;94.43;99645.41;1673640;85;21088;-72
2021/09/22 00:20:07;;;;;;;1.00;1.00;;;;;;;7.21;94.60;99649.64;1686083;85;21067;-72
2021/09/22 00:22:33;;;;;;;0.85;0.85;;;;;;;7.17;94.94;99641.79;1686582;85;21793;-73
2021/09/22 00:25:03;;;;;;;1.95;1.02;;;;;;;7.15;95.34;99651.89;1749982;78;20913;-70
2021/09/22 00:27:30;;;;;;;1.22;1.12;;;;;;;7.13;95.70;99640.10;1753779;80;21031;-71
2021/09/22 00:29:58;;;;;;;1.05;1.05;;;;;;;7.11;95.97;99646.19;1724782;83;21054;-70
2021/09/22 00:32:26;;;;;;;1.07;1.00;;;;;;;7.10;96.55;99640.54;1767221;79;20981;-72
2021/09/22 00:34:53;;;;;;;1.70;1.30;;;;;;;7.08;96.95;99649.84;1785942;80;21040;-71
2021/09/22 00:37:21;;;;;;;2.80;1.30;;;;;;;7.06;97.19;99643.90;1767642;80;20992;-71
2021/09/22 00:39:48;;;;;;;1.30;1.00;;;;;;;7.04;97.54;99640.14;1767732;80;21485;-76
2021/09/22 00:42:14;;;;;;;1.30;1.20;;;;;;;7.01;97.97;99642.73;1785585;80;20928;-75
2021/09/22 00:44:56;;;;;;;1.35;1.27;;;;;;;7.00;98.41;99634.95;1788804;80;21020;-76
2021/09/22 00:47:27;;;;;;;2.98;1.10;;;;;;;6.99;98.65;99636.81;1753913;81;21133;-74
2021/09/22 00:49:58;;;;;;;0.90;0.90;;;;;;;6.98;99.00;99632.50;1749657;80;20972;-71
2021/09/22 00:52:26;;;;;;;2.87;1.20;;;;;;;6.96;99.34;99638.59;1735341;81;20972;-72
2021/09/22 00:54:52;;;;;;;3.62;1.50;;;;;;;6.95;99.41;99632.16;1721825;83;20932;-75
2021/09/22 00:57:19;;;;;;;1.32;1.20;;;;;;;6.97;99.68;99633.54;1690972;82;21035;-72
2021/09/22 00:59:46;;;;;;;1.30;1.20;;;;;;;7.02;99.87;99631.52;1690917;83;21076;-71
2021/09/22 01:02:14;;;;;;;1.60;1.50;;;;;;;7.04;99.77;99627.28;1678480;84;21008;-70
2021/09/22 01:04:42;;;;;;;1.57;1.25;;;;;;;7.04;99.68;99624.09;1735466;82;21004;-74
2021/09/22 01:07:12;;;;;;;1.30;1.20;;;;;;;7.01;99.49;99623.19;1716306;82;20976;-75
2021/09/22 01:09:39;;;;;;;1.22;1.12;;;;;;;6.99;99.50;99620.77;1737915;82;21050;-74
2021/09/22 01:12:08;;;;;;;1.60;1.50;;;;;;;6.97;99.50;99617.50;1737570;82;21475;-73
2021/09/22 01:14:35;;;;;;;1.30;1.20;;;;;;;6.98;99.55;99612.97;1699296;83;20991;-77
2021/09/22 01:17:03;;;;;;;1.25;1.15;;;;;;;6.98;99.66;99617.80;1737094;80;20973;-73
2021/09/22 01:19:31;;;;;;;1.42;1.32;;;;;;;7.01;99.71;99619.19;1738036;82;20945;-74
2021/09/22 01:21:59;;;;;;;1.22;1.17;;;;;;;7.03;99.53;99608.27;1738287;82;20922;-76
2021/09/22 01:24:29;;;;;;;1.40;1.30;;;;;;;7.03;99.46;99614.95;1739203;82;21451;-72
2021/09/22 01:26:57;;;;;;;2.70;1.30;;;;;;;7.01;99.48;99614.66;1698434;82;20951;-72
2021/09/22 01:29:25;;;;;;;1.00;1.00;;;;;;;6.99;99.32;99619.43;1729188;82;21112;-71
2021/09/22 01:31:53;;;;;;;2.00;1.10;;;;;;;6.96;99.26;99614.52;1731061;82;21057;-72
2021/09/22 01:34:19;;;;;;;2.42;1.67;;;;;;;6.95;99.42;99612.09;1702233;83;21020;-71
2021/09/22 01:36:48;;;;;;;1.25;1.20;;;;;;;6.96;99.52;99607.02;1716813;82;20984;-74
2021/09/22 01:39:14;;;;;;;1.75;1.47;;;;;;;6.97;99.59;99609.99;1687257;83;20987;-73
2021/09/22 01:41:44;;;;;;;1.80;1.35;;;;;;;6.97;99.53;99609.47;1685760;84;20980;-74
2021/09/22 01:44:12;;;;;;;2.08;1.25;;;;;;;6.97;99.67;99604.13;1711940;83;21521;-76
2021/09/22 01:46:50;;;;;;;2.72;1.12;;;;;;;6.97;99.69;99607.32;1685284;83;21475;-76
2021/09/22 01:49:24;;;;;;;1.32;1.22;;;;;;;6.96;99.66;99605.68;1699609;83;21158;-76
2021/09/22 01:51:58;;;;;;;0.98;0.90;;;;;;;6.96;99.67;99604.34;1697890;83;21071;-74
2021/09/22 01:54:26;;;;;;;1.17;1.07;;;;;;;6.97;99.78;99604.13;1724535;83;20932;-77
2021/09/22 01:56:55;;;;;;;2.60;1.20;;;;;;;6.98;99.80;99602.27;1712427;83;21020;-75
2021/09/22 01:59:22;;;;;;;1.32;1.32;;;;;;;7.00;99.85;99609.01;1727150;82;21087;-75
2021/09/22 02:02:02;;;;;;;1.02;1.00;;;;;;;7.01;99.84;99606.63;1665513;82;21750;-76
2021/09/22 02:04:38;;;;;;;1.80;1.40;;;;;;;7.03;99.84;99602.92;1700750;83;21491;-75
2021/09/22 02:07:06;;;;;;;1.37;1.10;;;;;;;7.01;99.78;99605.81;1727937;82;22399;-76
2021/09/22 02:09:35;;;;;;;1.15;1.05;;;;;;;7.00;99.79;99602.32;1728036;82;20984;-76
2021/09/22 02:12:04;;;;;;;1.00;1.00;;;;;;;7.03;99.93;99603.74;1728063;82;21006;-78
2021/09/22 02:14:31;;;;;;;3.35;1.22;;;;;;;7.05;99.90;99598.96;1716371;83;21022;-78
2021/09/22 02:16:59;;;;;;;2.08;1.22;;;;;;;7.06;99.91;99604.61;1726717;82;20993;-74
2021/09/22 02:19:28;;;;;;;1.50;1.40;;;;;;;7.08;99.93;99598.52;1715349;83;20932;-77
2021/09/22 02:22:09;;;;;;;2.25;1.45;;;;;;;7.13;99.98;99601.84;1724814;83;20905;-75
2021/09/22 02:24:42;;;;;;;1.07;1.07;;;;;;;7.14;99.82;99601.62;1727099;82;21458;-75
2021/09/22 02:27:06;;;;;;;1.62;1.20;;;;;;;7.15;99.73;99601.08;1688296;83;21794;-77
2021/09/22 02:29:33;;;;;;;1.62;1.30;;;;;;;7.14;99.53;99603.48;1717739;83;20901;-79
2021/09/22 02:32:00;;;;;;;1.87;1.20;;;;;;;7.12;99.45;99602.36;1717035;83;21497;-77
2021/09/22 02:34:27;;;;;;;1.42;1.32;;;;;;;7.10;99.33;99600.42;1727846;82;20972;-79
2021/09/22 02:36:56;;;;;;;1.27;1.17;;;;;;;7.08;99.41;99623.92;1727044;82;21055;-76
2021/09/22 02:39:25;;;;;;;1.30;1.30;;;;;;;7.05;99.29;99596.28;1727890;82;21331;-79
2021/09/22 02:41:54;;;;;;;1.30;1.20;;;;;;;7.03;99.20;99608.27;1727341;81;20933;-77
2021/09/22 02:44:20;;;;;;;1.37;1.27;;;;;;;6.98;99.16;99601.75;1727677;82;20984;-73
2021/09/22 02:46:49;;;;;;;1.42;1.35;;;;;;;6.97;99.32;99595.29;1703935;83;21050;-75
2021/09/22 02:49:16;;;;;;;1.47;1.37;;;;;;;6.97;99.45;99608.14;1721295;83;21027;-75
2021/09/22 02:51:43;;;;;;;1.30;1.20;;;;;;;6.94;99.49;99601.11;1727889;82;22213;-75
2021/09/22 02:54:11;;;;;;;1.10;1.10;;;;;;;6.94;99.74;99617.14;1727909;82;21005;-73
2021/09/22 02:56:44;;;;;;;2.72;1.30;;;;;;;6.94;99.79;99599.77;1695909;83;20994;-75
2021/09/22 02:59:12;;;;;;;1.25;1.17;;;;;;;6.93;99.83;99598.95;1717085;83;21031;-75
2021/09/22 03:01:41;;;;;;;1.10;1.07;;;;;;;6.94;99.90;99599.77;1727627;82;21011;-75
2021/09/22 03:04:08;;;;;;;1.40;1.30;;;;;;;6.93;99.83;99602.14;1727759;82;21246;-75
2021/09/22 03:06:37;;;;;;;1.65;1.55;;;;;;;6.88;99.85;99598.81;1727574;82;20939;-75
2021/09/22 03:09:05;;;;;;;1.47;1.37;;;;;;;6.87;100.00;99598.52;1728058;82;21490;-73
2021/09/22 03:11:33;;;;;;;1.87;1.65;;;;;;;6.89;100.00;99608.98;1726422;82;20965;-74
2021/09/22 03:14:01;;;;;;;1.72;1.47;;;;;;;6.91;100.00;99601.02;1726661;82;21000;-74
2021/09/22 03:16:31;;;;;;;1.52;1.42;;;;;;;6.92;100.00;99599.98;1727214;82;21078;-73
2021/09/22 03:19:00;;;;;;;1.40;1.30;;;;;;;6.94;100.00;99599.25;1727889;81;20987;-73
2021/09/22 03:21:28;;;;;;;1.50;1.40;;;;;;;6.94;100.00;99595.23;1727495;82;21011;-72
2021/09/22 03:23:56;;;;;;;1.60;1.37;;;;;;;6.90;99.97;99591.91;1706222;82;20973;-74
2021/09/22 03:26:24;;;;;;;1.45;1.35;;;;;;;6.87;99.94;99591.83;1698960;83;21476;-69
2021/09/22 03:28:51;;;;;;;1.70;1.60;;;;;;;6.86;100.00;99594.20;1676742;83;21277;-73
2021/09/22 03:31:18;;;;;;;1.95;1.85;;;;;;;6.86;100.00;99593.39;1675868;84;21476;-74
2021/09/22 03:33:44;;;;;;;2.42;2.27;;;;;;;6.86;100.00;99588.86;1696455;84;21059;-73
2021/09/22 03:36:10;;;;;;;1.67;1.57;;;;;;;6.90;100.00;99592.73;1702949;83;20988;-75
2021/09/22 03:38:37;;;;;;;1.70;1.60;;;;;;;6.95;100.00;99592.05;1726321;82;21024;-76
2021/09/22 03:41:04;;;;;;;2.95;2.75;;;;;;;6.96;99.85;99593.13;1726484;83;21184;-77
2021/09/22 03:43:32;;;;;;;2.30;2.10;;;;;;;6.94;99.46;99599.77;1727668;82;20905;-75
2021/09/22 03:46:00;;;;;;;3.00;1.67;;;;;;;6.91;99.27;99593.00;1717028;83;21516;-76
2021/09/22 03:48:27;;;;;;;1.70;1.60;;;;;;;6.89;99.29;99592.95;1717076;82;21493;-73
2021/09/22 03:50:55;;;;;;;1.65;1.55;;;;;;;6.89;99.24;99591.61;1727968;82;21019;-77
2021/09/22 03:53:26;;;;;;;2.17;1.98;;;;;;;6.89;99.20;99592.95;1727296;82;21218;-77
2021/09/22 03:55:53;;;;;;;2.15;1.95;;;;;;;6.92;99.28;99594.64;1727599;82;20972;-74
2021/09/22 03:58:20;;;;;;;2.40;2.08;;;;;;;6.95;99.23;99588.03;1715727;83;20972;-73
2021/09/22 04:00:47;;;;;;;2.37;2.17;;;;;;;6.96;99.14;99593.65;1728396;81;20996;-72
2021/09/22 04:03:14;;;;;;;2.40;2.20;;;;;;;6.97;98.97;99592.61;1727878;82;21044;-72
2021/09/22 04:05:41;;;;;;;2.37;2.17;;;;;;;6.98;98.90;99595.59;1727034;82;21139;-72
2021/09/22 04:08:09;;;;;;;1.62;1.52;;;;;;;6.98;98.74;99588.91;1727872;82;20971;-75
2021/09/22 04:10:37;;;;;;;2.25;2.08;;;;;;;7.02;98.70;99590.07;1728271;83;21016;-75
2021/09/22 04:13:04;;;;;;;2.33;2.00;;;;;;;7.03;98.50;99594.38;1717125;83;21556;-74
2021/09/22 04:15:33;;;;;;;2.80;2.30;;;;;;;7.02;98.19;99595.42;1716360;83;21485;-72
2021/09/22 04:17:59;;;;;;;2.52;1.77;;;;;;;7.02;98.14;99588.73;1727344;82;21209;-73
2021/09/22 04:20:26;;;;;;;5.47;4.08;;;;;;;7.03;98.06;99587.70;1710460;83;20950;-74
2021/09/22 04:22:54;;;;;;;1.75;1.65;;;;;;;7.04;97.81;99595.20;1665342;84;21579;-75
2021/09/22 04:25:20;;;;;;;2.92;2.70;;;;;;;7.03;97.63;99594.90;1701457;83;20980;-74
2021/09/22 04:27:52;;;;;;;1.98;1.75;;;;;;;7.04;97.71;99594.69;1719723;82;21023;-77
2021/09/22 04:30:26;;;;;;;1.75;1.65;;;;;;;7.05;97.26;99598.96;1712254;83;21470;-75
2021/09/22 04:33:11;;;;;;;1.67;1.57;;;;;;;7.04;97.24;99593.86;1705758;83;21036;-75
2021/09/22 04:35:56;;;;;;;2.70;2.50;;;;;;;7.06;97.15;99592.58;1727126;83;21533;-77
2021/09/22 04:38:43;;;;;;;3.92;2.98;;;;;;;7.06;96.87;99596.59;1726987;82;21533;-78
2021/09/22 04:41:27;;;;;;;2.35;2.02;;;;;;;7.04;96.60;99593.34;1688823;84;21090;-76
2021/09/22 04:44:12;;;;;;;2.27;2.08;;;;;;;7.03;96.56;99593.05;1699294;83;21211;-74
2021/09/22 04:46:59;;;;;;;2.95;2.65;;;;;;;7.04;96.54;99600.55;1699193;83;21473;-77
2021/09/22 04:49:44;;;;;;;2.17;2.08;;;;;;;7.04;96.50;99594.69;1698949;83;21038;-75
2021/09/22 04:52:29;;;;;;;2.33;2.12;;;;;;;7.07;96.64;99598.22;1698806;84;20985;-76
2021/09/22 04:55:14;;;;;;;2.20;2.00;;;;;;;7.10;96.46;99596.97;1698850;83;21047;-77
2021/09/22 04:57:58;;;;;;;2.65;2.45;;;;;;;7.07;96.13;99597.41;1696394;84;21244;-77
2021/09/22 05:00:44;;;;;;;3.52;2.30;;;;;;;7.05;96.07;99600.30;1708059;83;20997;-75
2021/09/22 05:03:29;;;;;;;2.67;1.90;;;;;;;7.01;96.18;99590.59;1728216;82;20972;-78
2021/09/22 05:06:15;;;;;;;3.30;2.35;;;;;;;7.03;96.25;99594.38;1720113;82;20939;-79
2021/09/22 05:09:01;;;;;;;2.25;2.02;;;;;;;7.07;96.43;99599.56;1705467;82;21611;-77
2021/09/22 05:11:48;;;;;;;2.52;2.33;;;;;;;7.10;96.33;99601.77;1699888;83;20946;-78
2021/09/22 05:14:17;;;;;;;3.10;2.60;;;;;;;7.10;96.08;99599.64;1668615;82;21040;-77
2021/09/22 05:17:04;;;;;;;4.25;2.33;;;;;;;7.11;96.00;99598.05;1699197;83;20956;-79
2021/09/22 05:19:50;;;;;;;2.00;1.82;;;;;;;7.10;95.87;99590.28;1718382;83;20983;-77
2021/09/22 05:22:37;;;;;;;2.75;1.85;;;;;;;7.10;95.76;99614.34;1728213;82;20971;-79
2021/09/22 05:25:21;;;;;;;3.72;1.92;;;;;;;7.10;95.69;99611.67;1716992;83;21423;-80
2021/09/22 05:28:07;;;;;;;1.87;1.77;;;;;;;7.11;95.58;99620.78;1714157;83;21043;-78
2021/09/22 05:30:52;;;;;;;1.87;1.77;;;;;;;7.08;95.28;99609.73;1713097;81;21071;-77
2021/09/22 05:33:37;;;;;;;2.05;1.95;;;;;;;7.06;95.03;99618.50;1742088;81;21528;-81
2021/09/22 05:36:22;;;;;;;7.05;6.17;;;;;;;7.03;95.05;99608.27;1725605;83;21094;-78
2021/09/22 05:39:10;;;;;;;3.47;3.17;;;;;;;7.02;95.07;99612.80;1725510;82;21153;-79
2021/09/22 05:41:55;;;;;;;2.40;2.25;;;;;;;7.02;94.95;99603.44;1727000;83;21559;-77
2021/09/22 05:44:39;;;;;;;1.92;1.82;;;;;;;7.04;94.97;99608.57;1694093;83;20999;-77
2021/09/22 05:47:24;;;;;;;2.58;2.37;;;;;;;7.04;94.90;99609.39;1698748;83;21513;-77
2021/09/22 05:50:10;;;;;;;2.02;1.90;;;;;;;7.03;94.86;99606.41;1718179;83;21056;-80
2021/09/22 05:52:55;;;;;;;1.70;1.60;;;;;;;7.05;94.92;99605.64;1717155;83;21095;-80
2021/09/22 05:55:40;;;;;;;2.50;2.30;;;;;;;7.08;94.98;99610.55;1720004;82;21551;-80
2021/09/22 05:58:25;;;;;;;2.40;2.20;;;;;;;7.12;95.02;99606.38;1715355;83;21012;-79
2021/09/22 06:01:03;;;;;;;2.70;2.50;;;;;;;7.15;94.76;99607.24;1632183;87;21044;-78
2021/09/22 06:03:48;;;;;;;2.87;2.67;;;;;;;7.15;94.71;99603.75;1726374;82;21008;-79
2021/09/22 06:06:33;;;;;;;3.12;2.30;;;;;;;7.18;94.83;99613.48;1710610;82;21114;-79
2021/09/22 06:09:05;;;;;;;2.45;2.25;;;;;;;7.20;94.73;99609.22;1708376;83;21054;-77
2021/09/22 06:11:35;;;;;;;2.70;2.42;;;;;;;7.24;94.78;99611.76;1727634;82;21032;-77
2021/09/22 06:14:03;;;;;;;2.00;1.90;;;;;;;7.24;94.56;99605.86;1727989;82;21023;-76
2021/09/22 06:16:31;;;;;;;4.45;2.80;;;;;;;7.25;94.52;99602.66;1695496;83;21534;-83
2021/09/22 06:19:09;;;;;;;3.17;2.60;;;;;;;7.26;94.44;99602.45;1710307;83;21014;-79
2021/09/22 06:21:37;;;;;;;3.15;2.52;;;;;;;7.27;94.24;99605.42;1726399;82;21615;-78
2021/09/22 06:24:05;;;;;;;3.35;2.67;;;;;;;7.27;94.18;99603.27;1726327;82;21044;-77
2021/09/22 06:26:35;;;;;;;5.10;3.70;;;;;;;7.28;94.13;99607.58;1739382;82;21052;-78
2021/09/22 06:29:03;;;;;;;3.45;2.85;;;;;;;7.28;94.17;99615.60;1717229;82;21075;-80
2021/09/22 06:31:30;;;;;;;3.35;2.52;;;;;;;7.31;94.18;99612.45;1713777;83;21138;-77
2021/09/22 06:33:59;;;;;;;3.40;3.00;;;;;;;7.34;94.12;99616.81;1738196;82;21181;-79
2021/09/22 06:36:25;;;;;;;2.35;2.15;;;;;;;7.36;94.02;99612.58;1726398;82;20972;-79
2021/09/22 06:38:53;;;;;;;2.90;2.47;;;;;;;7.33;93.77;99617.06;1725864;83;21071;-78
2021/09/22 06:41:21;;;;;;;3.08;2.75;;;;;;;7.32;93.81;99614.91;1717310;83;21489;-76
2021/09/22 06:43:47;;;;;;;3.08;2.72;;;;;;;7.32;93.66;99616.25;1717409;83;21195;-79
2021/09/22 06:46:16;;;;;;;5.15;4.10;;;;;;;7.33;93.72;99613.05;1728046;82;20964;-78
2021/09/22 06:48:43;;;;;;;3.33;2.60;;;;;;;7.37;93.85;99616.38;1726598;82;21086;-79
2021/09/22 06:51:11;;;;;;;4.70;3.15;;;;;;;7.41;93.78;99618.88;1712581;83;20948;-76
2021/09/22 06:53:39;;;;;;;4.47;2.90;;;;;;;7.43;93.57;99622.66;1726412;82;21091;-80
2021/09/22 06:56:06;;;;;;;1.90;1.80;;;;;;;7.45;93.61;99620.55;1726382;82;20961;-79
2021/09/22 06:58:32;;;;;;;3.60;2.45;;;;;;;7.48;93.62;99620.11;1715690;83;21067;-78
2021/09/22 07:00:59;;;;;;;3.42;2.12;;;;;;;7.51;93.60;99614.29;1727291;83;21494;-81
2021/09/22 07:03:25;;;;;;;2.35;2.15;;;;;;;7.53;93.47;99616.74;1727867;83;21051;-79
2021/09/22 07:05:52;;;;;;;2.15;2.02;;;;;;;7.53;93.34;99622.88;1710429;83;21027;-77
2021/09/22 07:08:19;;;;;;;2.55;2.30;;;;;;;7.54;93.26;99628.53;1702443;83;20992;-80
2021/09/22 07:10:46;;;;;;;1.95;1.75;;;;;;;7.53;93.03;99619.41;1726061;83;20964;-78
2021/09/22 07:13:12;;;;;;;1.90;1.80;;;;;;;7.54;93.01;99626.38;1727837;82;21261;-78
2021/09/22 07:15:41;;;;;;;1.65;1.47;;;;;;;7.51;92.88;99629.00;1728116;82;21067;-80
2021/09/22 07:18:09;;;;;;;2.10;1.45;;;;;;;7.50;92.75;99626.55;1727876;82;21059;-80
2021/09/22 07:20:36;;;;;;;2.42;1.67;;;;;;;7.50;92.75;99625.21;1727257;83;21194;-80
2021/09/22 07:23:04;;;;;;;2.25;1.95;;;;;;;7.50;92.59;99643.42;1715879;83;20968;-80
2021/09/22 07:25:32;;;;;;;2.37;1.75;;;;;;;7.48;92.33;99637.50;1727901;82;21067;-80
2021/09/22 07:27:58;;;;;;;1.87;1.77;;;;;;;7.47;92.45;99635.87;1727716;82;21979;-81
2021/09/22 07:30:26;;;;;;;3.15;1.95;;;;;;;7.47;92.39;99637.73;1726336;82;20976;-79
2021/09/22 07:32:54;;;;;;;2.95;2.22;;;;;;;7.47;92.40;99635.05;1715890;83;21361;-79
2021/09/22 07:35:20;;;;;;;2.40;2.20;;;;;;;7.48;92.52;99638.02;1714218;83;21536;-79
2021/09/22 07:37:48;;;;;;;2.50;2.30;;;;;;;7.47;92.18;99639.88;1728237;82;20975;-81
2021/09/22 07:40:15;;;;;;;1.80;1.70;;;;;;;7.45;92.01;99629.92;1727963;82;21005;-79
2021/09/22 07:42:42;;;;;;;1.87;1.77;;;;;;;7.47;92.17;99636.39;1710343;82;21563;-78
2021/09/22 07:45:10;;;;;;;2.35;1.98;;;;;;;7.45;91.98;99632.08;1675979;84;21109;-80
2021/09/22 07:47:37;;;;;;;2.52;2.27;;;;;;;7.46;91.92;99636.91;1714728;83;21007;-82
2021/09/22 07:50:05;;;;;;;2.92;2.62;;;;;;;7.49;91.90;99624.91;1708642;83;21482;-82
2021/09/22 07:52:31;;;;;;;2.60;2.10;;;;;;;7.50;91.88;99626.03;1709750;83;20996;-79
2021/09/22 07:55:00;;;;;;;2.20;2.10;;;;;;;7.50;91.63;99626.03;1728029;82;20956;-78
2021/09/22 07:57:26;;;;;;;1.90;1.80;;;;;;;7.47;91.10;99628.36;1727952;82;21125;-80
2021/09/22 07:59:55;;;;;;;4.85;1.60;;;;;;;7.48;91.22;99620.11;1727974;82;21508;-78
2021/09/22 08:02:21;;;;;;;3.65;1.67;;;;;;;7.51;91.22;99624.17;1738394;82;21129;-80
2021/09/22 08:04:48;;;;;;;2.55;1.98;;;;;;;7.48;90.03;99620.11;1727931;82;21040;-82
2021/09/22 08:07:15;;;;;;;1.75;1.65;;;;;;;7.50;90.44;99632.72;1727503;82;21052;-82
2021/09/22 08:09:43;;;;;;;1.52;1.42;;;;;;;7.52;90.16;99615.92;1726891;82;21087;-83
2021/09/22 08:12:09;;;;;;;1.87;1.70;;;;;;;7.54;89.86;99617.01;1725830;83;20988;-84
2021/09/22 08:14:36;;;;;;;1.87;1.60;;;;;;;7.58;89.87;99622.22;1728008;82;21040;-81
2021/09/22 08:17:03;;;;;;;1.50;1.40;;;;;;;7.66;89.99;99625.88;1715992;83;21000;-81
2021/09/22 08:19:30;;;;;;;1.40;1.30;;;;;;;7.70;89.25;99615.81;1741981;81;21032;-83
2021/09/22 08:21:57;;;;;;;4.22;1.90;;;;;;;7.78;89.26;99614.63;1718450;81;21091;-79
2021/09/22 08:24:24;;;;;;;1.90;1.80;;;;;;;7.84;88.97;99615.86;1682485;83;21142;-88
2021/09/22 08:26:53;;;;;;;1.60;1.50;;;;;;;7.92;88.85;99624.05;1715037;82;20963;-80
2021/09/22 08:29:21;;;;;;;1.60;1.50;;;;;;;7.95;88.06;99614.75;1706696;83;21515;-80
2021/09/22 08:31:48;;;;;;;2.10;2.00;;;;;;;7.94;87.09;99617.95;1697670;83;21083;-79
2021/09/22 08:34:15;;;;;;;2.42;1.98;;;;;;;7.96;87.45;99621.74;1712782;83;21185;-82
2021/09/22 08:36:44;;;;;;;1.80;1.70;;;;;;;7.99;87.50;99618.59;1703633;83;20983;-78
2021/09/22 08:39:12;;;;;;;3.00;2.30;;;;;;;8.02;87.58;99623.46;1713106;83;20925;-88
2021/09/22 08:41:39;;;;;;;2.77;2.50;;;;;;;8.06;87.59;99623.27;1704756;83;21013;-83
2021/09/22 08:44:05;;;;;;;2.58;2.00;;;;;;;8.03;86.48;99619.73;1707295;83;21066;-81
2021/09/22 08:46:33;;;;;;;2.25;1.87;;;;;;;8.00;86.06;99610.84;1696279;84;23239;-81
2021/09/22 08:49:02;;;;;;;2.27;2.10;;;;;;;7.98;86.20;99620.97;1678709;83;21575;-79
2021/09/22 08:51:30;;;;;;;1.95;1.85;;;;;;;7.95;85.96;99615.57;1687513;83;20985;-82
2021/09/22 08:53:57;;;;;;;2.25;2.05;;;;;;;7.92;86.10;99613.86;1706184;82;21016;-83
2021/09/22 08:56:24;;;;;;;2.10;2.00;;;;;;;7.90;86.41;99611.44;1702937;83;21194;-81
2021/09/22 08:58:51;;;;;;;2.67;2.47;;;;;;;7.89;86.49;99621.85;1719492;82;21419;-81
2021/09/22 09:01:22;;;;;;;1.75;1.65;;;;;;;7.88;86.59;99617.02;1648192;86;21027;-83
2021/09/22 09:03:49;;;;;;;2.08;1.65;;;;;;;7.87;86.60;99613.22;1660185;85;20988;-85
2021/09/22 09:06:23;;;;;;;2.33;2.12;;;;;;;7.86;86.68;99608.94;1678946;85;21096;-86
2021/09/22 09:08:56;;;;;;;3.80;2.40;;;;;;;7.87;86.90;99619.39;1680016;85;21033;-88
2021/09/22 09:11:34;;;;;;;2.20;2.10;;;;;;;7.90;87.06;99618.13;1659550;84;21140;-83
2021/09/22 09:14:03;;;;;;;2.58;2.37;;;;;;;7.93;87.04;99614.16;1664467;85;21523;-84
2021/09/22 09:16:41;;;;;;;2.65;2.45;;;;;;;7.95;86.78;99621.44;1685517;84;21040;-82
2021/09/22 09:19:14;;;;;;;3.72;2.15;;;;;;;7.94;86.54;99616.61;1684502;84;20990;-82
2021/09/22 09:22:07;;;;;;;8.63;4.08;;;;;;;7.95;86.42;99612.07;1685513;84;20956;-85
2021/09/22 09:24:45;;;;;;;3.10;2.85;;;;;;;7.98;86.54;99619.63;1682242;83;21890;-91
2021/09/22 09:27:30;;;;;;;2.40;2.30;;;;;;;8.01;86.30;99618.63;1676179;85;21088;-82
2021/09/22 09:29:57;;;;;;;2.77;2.58;;;;;;;8.03;86.15;99622.41;1666671;85;20998;-84
2021/09/22 09:32:26;;;;;;;2.83;2.60;;;;;;;8.02;85.77;99620.78;1717315;83;20948;-88
2021/09/22 09:35:02;;;;;;;2.25;2.12;;;;;;;8.02;85.97;99617.58;1718347;82;21076;-89
2021/09/22 09:37:38;;;;;;;3.95;2.90;;;;;;;8.05;86.17;99629.70;1706971;83;21902;-88
2021/09/22 09:40:34;;;;;;;4.95;1.95;;;;;;;8.09;86.18;99614.79;1719122;82;21533;-87
2021/09/22 09:43:08;;;;;;;2.70;2.37;;;;;;;8.12;85.50;99626.36;1720868;83;21005;-87
2021/09/22 09:45:45;;;;;;;3.12;2.12;;;;;;;8.13;85.44;99619.96;1716508;82;20895;-75
2021/09/22 09:48:20;;;;;;;2.17;2.08;;;;;;;8.12;85.49;99616.47;1699416;83;20931;-83
2021/09/22 09:50:54;;;;;;;2.12;1.92;;;;;;;8.15;85.39;99620.55;1712165;83;20937;-85
2021/09/22 09:53:25;;;;;;;2.83;2.00;;;;;;;8.12;85.24;99613.78;1711509;82;20984;-76
2021/09/22 09:55:52;;;;;;;2.95;2.30;;;;;;;8.12;85.26;99610.29;1709599;83;21758;-83
2021/09/22 09:58:21;;;;;;;3.33;2.52;;;;;;;8.15;85.57;99607.95;1716256;82;21037;-83
2021/09/22 10:00:51;;;;;;;15.10;2.92;;;;;;;8.27;85.61;99615.45;1714092;83;21483;-83
2021/09/22 10:03:21;;;;;;;2.25;2.05;;;;;;;8.36;85.41;99611.91;1721254;81;20963;-80
2021/09/22 10:05:51;;;;;;;1.65;1.55;;;;;;;8.44;85.00;99620.11;1728041;83;21513;-91
2021/09/22 10:08:21;;;;;;;2.72;2.52;;;;;;;8.47;84.49;99629.82;1713417;82;20984;-84
2021/09/22 10:10:51;;;;;;;4.67;2.40;;;;;;;8.46;83.99;99616.12;1727579;82;21024;-83
2021/09/22 10:13:20;;;;;;;1.77;1.60;;;;;;;8.48;83.81;99614.56;1727489;82;21103;-80
2021/09/22 10:15:48;;;;;;;2.00;1.90;;;;;;;8.49;83.05;99625.02;1725121;83;21269;-87
2021/09/22 10:18:15;;;;;;;3.02;2.60;;;;;;;8.50;82.88;99622.64;1693825;83;21004;-84
2021/09/22 10:20:44;;;;;;;2.75;2.55;;;;;;;8.51;82.86;99627.47;1717070;83;20990;-83
2021/09/22 10:23:11;;;;;;;3.08;2.37;;;;;;;8.52;82.68;99615.70;1726490;82;21061;-83
2021/09/22 10:25:39;;;;;;;2.15;2.05;;;;;;;8.51;82.77;99619.43;1727947;82;21059;-84
2021/09/22 10:28:05;;;;;;;2.37;2.25;;;;;;;8.53;82.76;99628.88;1728146;83;21154;-86
2021/09/22 10:30:39;;;;;;;2.30;2.10;;;;;;;8.52;82.25;99621.88;1717261;83;20976;-80
2021/09/22 10:33:06;;;;;;;3.37;1.98;;;;;;;8.51;82.04;99628.81;1727684;82;21341;-82
2021/09/22 10:35:41;;;;;;;2.98;2.45;;;;;;;8.49;81.90;99624.23;1701088;83;21496;-81
2021/09/22 10:38:28;;;;;;;2.42;2.22;;;;;;;8.51;82.23;99621.59;1702190;83;21540;-85
2021/09/22 10:41:00;;;;;;;2.70;2.50;;;;;;;8.52;82.28;99624.56;1722333;83;21168;-85
2021/09/22 10:43:28;;;;;;;3.45;2.55;;;;;;;8.55;82.54;99618.72;1725992;83;21494;-80
2021/09/22 10:46:18;;;;;;;2.70;2.50;;;;;;;8.61;82.56;99619.11;1725855;82;21446;-89
2021/09/22 10:48:58;;;;;;;2.00;1.67;;;;;;;8.65;82.33;99616.23;1728143;82;21231;-80
2021/09/22 10:51:33;;;;;;;3.87;2.62;;;;;;;8.70;81.96;99619.02;1717500;83;20987;-88
2021/09/22 10:54:10;;;;;;;2.12;1.92;;;;;;;8.77;81.77;99622.09;1718512;82;22543;-74
2021/09/22 10:56:59;;;;;;;2.98;1.87;;;;;;;8.79;81.04;99611.92;1716183;83;21027;-82
2021/09/22 10:59:39;;;;;;;2.77;2.10;;;;;;;8.77;80.31;99612.70;1668981;85;21096;-81
2021/09/22 11:02:09;;;;;;;1.55;1.45;;;;;;;8.73;80.52;99609.14;1711163;83;20944;-79
2021/09/22 11:04:58;;;;;;;1.70;1.60;;;;;;;8.72;80.90;99614.24;1719519;82;20989;-84
2021/09/22 11:08:00;;;;;;;2.42;1.60;;;;;;;8.73;80.80;99617.71;1683170;84;21051;-85
2021/09/22 11:10:53;;;;;;;1.80;1.70;;;;;;;8.72;80.18;99610.74;1666357;85;21019;-81
2021/09/22 11:13:26;;;;;;;1.95;1.85;;;;;;;8.70;79.53;99625.72;1635079;86;21650;-82
2021/09/22 11:15:56;;;;;;;1.70;1.60;;;;;;;8.67;79.44;99612.80;1662114;85;21004;-78
2021/09/22 11:18:24;;;;;;;1.95;1.85;;;;;;;8.66;79.41;99621.08;1660863;85;20958;-76
2021/09/22 11:20:57;;;;;;;1.90;1.80;;;;;;;8.65;79.47;99617.58;1658095;85;21046;-78
2021/09/22 11:23:26;;;;;;;1.80;1.70;;;;;;;8.68;79.68;99617.64;1658029;84;20999;-81
2021/09/22 11:25:52;;;;;;;2.20;2.00;;;;;;;8.69;79.30;99617.38;1629982;87;21142;-79
2021/09/22 11:28:19;;;;;;;1.90;1.80;;;;;;;8.72;79.57;99610.74;1648375;85;22032;-91
2021/09/22 11:30:54;;;;;;;2.42;2.22;;;;;;;8.73;79.52;99615.84;1654940;85;21016;-86
2021/09/22 11:33:23;;;;;;;2.65;2.45;;;;;;;8.77;79.67;99619.41;1715280;83;21194;-83
2021/09/22 11:35:49;;;;;;;2.50;2.02;;;;;;;8.79;79.54;99611.92;1707019;83;20988;-75
2021/09/22 11:38:16;;;;;;;4.92;2.37;;;;;;;8.81;79.41;99605.28;1711412;83;20928;-79
2021/09/22 11:40:43;;;;;;;3.83;3.47;;;;;;;8.85;79.54;99604.27;1719195;82;21080;-78
2021/09/22 11:43:18;;;;;;;2.90;1.62;;;;;;;8.88;78.52;99613.16;1719578;83;21072;-80
2021/09/22 11:45:54;;;;;;;1.40;1.32;;;;;;;8.89;78.20;99610.77;1678472;84;39223;-80
2021/09/22 11:48:32;;;;;;;2.30;2.20;;;;;;;8.90;77.94;99603.02;1677096;84;21049;-77
2021/09/22 11:51:00;;;;;;;2.10;2.00;;;;;;;8.91;78.32;99604.65;1693162;83;21513;-76
2021/09/22 11:53:36;;;;;;;2.20;2.00;;;;;;;8.92;78.59;99600.92;1719091;82;21035;-75
2021/09/22 11:55:58;;;;;;;4.00;2.45;;;;;;;8.93;78.41;99596.63;1718555;82;21316;-74
2021/09/22 11:58:29;;;;;;;2.25;2.15;;;;;;;8.97;78.27;99601.02;1703202;83;21044;-79
2021/09/22 12:01:01;;;;;;;2.72;2.52;;;;;;;8.96;78.16;99600.72;1716914;82;20957;-78